createdAt,value
2019-05-13T00:42:09.773Z,1.70
2019-05-13T00:44:39.204Z,1.60
2019-05-13T00:47:08.608Z,1.60
2019-05-13T00:49:37.745Z,1.70
2019-05-13T00:52:06.863Z,1.40
2019-05-13T00:54:35.998Z,1.60
2019-05-13T00:57:05.132Z,1.30
2019-05-13T00:59:34.312Z,1.40
2019-05-13T01:02:04.347Z,1.60
2019-05-13T01:04:33.993Z,1.67
2019-05-13T01:07:04.410Z,1.60
2019-05-13T01:09:34.268Z,1.47
2019-05-13T01:12:04.391Z,1.70
2019-05-13T01:14:34.306Z,1.50
2019-05-13T01:17:04.640Z,1.43
2019-05-13T01:19:34.849Z,1.47
2019-05-13T01:22:03.965Z,1.70
2019-05-13T01:24:33.898Z,1.70
2019-05-13T01:27:04.127Z,1.60
2019-05-13T01:29:34.423Z,1.60
2019-05-13T01:32:04.500Z,1.70
2019-05-13T01:34:34.101Z,1.50
2019-05-13T01:37:04.197Z,1.40
2019-05-13T01:39:34.977Z,1.60
2019-05-13T01:42:04.689Z,1.53
2019-05-13T01:44:33.874Z,1.70
2019-05-13T01:47:04.558Z,1.63
2019-05-13T01:49:33.964Z,1.70
2019-05-13T01:52:03.932Z,1.30
2019-05-13T01:54:33.833Z,1.50
2019-05-13T01:57:04.442Z,1.23
2019-05-13T01:59:34.592Z,1.60
2019-05-13T02:02:05.582Z,1.33
2019-05-13T02:04:34.701Z,1.30
2019-05-13T02:07:04.291Z,1.40
2019-05-13T02:09:34.105Z,1.30
2019-05-13T02:12:04.827Z,1.50
2019-05-13T02:14:34.299Z,1.30
2019-05-13T02:17:04.464Z,1.50
2019-05-13T02:19:33.818Z,1.40
2019-05-13T02:22:04.680Z,1.60
2019-05-13T02:24:34.354Z,1.80
2019-05-13T02:27:04.920Z,1.47
2019-05-13T02:29:34.610Z,1.60
2019-05-13T02:32:04.874Z,1.50
2019-05-13T02:34:34.381Z,1.53
2019-05-13T02:37:03.815Z,1.50
2019-05-13T02:39:33.183Z,1.47
2019-05-13T02:42:03.468Z,1.27
2019-05-13T02:44:33.629Z,1.67
2019-05-13T02:47:04.210Z,1.50
2019-05-13T02:49:33.466Z,1.60
2019-05-13T02:52:03.750Z,1.53
2019-05-13T02:54:34.160Z,1.60
2019-05-13T02:57:04.569Z,1.70
2019-05-13T02:59:34.056Z,1.70
2019-05-13T03:02:05.095Z,1.60
2019-05-13T03:04:34.602Z,1.50
2019-05-13T03:07:04.625Z,1.70
2019-05-13T03:09:33.756Z,1.67
2019-05-13T03:12:05.189Z,1.63
2019-05-13T03:14:34.305Z,1.57
2019-05-13T03:17:13.112Z,1.60
2019-05-13T03:19:43.491Z,1.60
2019-05-13T03:22:13.595Z,1.73
2019-05-13T03:24:43.206Z,1.60
2019-05-13T03:27:13.101Z,1.50
2019-05-13T03:29:43.454Z,1.70
2019-05-13T03:32:16.066Z,1.67
2019-05-13T03:34:45.537Z,2.00
2019-05-13T03:37:15.916Z,1.67
2019-05-13T03:39:45.163Z,2.00
2019-05-13T03:42:14.304Z,1.50
2019-05-13T03:44:44.458Z,1.70
2019-05-13T03:47:14.358Z,1.80
2019-05-13T03:49:44.503Z,2.00
2019-05-13T03:52:13.780Z,2.00
2019-05-13T03:54:43.721Z,1.70
2019-05-13T03:57:13.063Z,1.70
2019-05-13T03:59:43.612Z,1.73
2019-05-13T04:02:14.111Z,1.67
2019-05-13T04:04:43.282Z,1.80
2019-05-13T04:07:13.389Z,2.20
2019-05-13T04:09:42.824Z,1.80
2019-05-13T04:12:13.553Z,1.87
2019-05-13T04:14:43.383Z,2.00
2019-05-13T04:17:12.873Z,1.80
2019-05-13T04:19:42.429Z,2.13
2019-05-13T04:22:12.918Z,2.43
2019-05-13T04:24:42.792Z,1.90
2019-05-13T04:27:13.406Z,1.80
2019-05-13T04:29:43.334Z,2.03
2019-05-13T04:32:13.704Z,2.07
2019-05-13T04:34:42.982Z,1.90
2019-05-13T04:37:13.239Z,1.80
2019-05-13T04:39:51.166Z,2.03
2019-05-13T04:42:13.560Z,1.90
2019-05-13T04:44:43.028Z,2.00
2019-05-13T04:47:12.760Z,2.00
2019-05-13T04:49:42.801Z,2.03
2019-05-13T04:52:13.414Z,2.10
2019-05-13T04:54:43.669Z,2.50
2019-05-13T04:57:13.157Z,2.40
2019-05-13T04:59:44.448Z,2.60
2019-05-13T05:02:22.682Z,2.20
2019-05-13T05:05:05.341Z,2.50
2019-05-13T05:07:37.776Z,2.50
2019-05-13T05:10:38.327Z,2.80
2019-05-13T05:13:22.337Z,3.20
2019-05-13T05:16:02.657Z,2.70
2019-05-13T05:19:05.502Z,2.50
2019-05-13T05:21:56.279Z,2.73
2019-05-13T05:24:41.331Z,2.70
2019-05-13T05:27:36.346Z,2.73
2019-05-13T05:30:21.828Z,2.50
2019-05-13T05:33:11.220Z,2.90
2019-05-13T05:35:52.170Z,2.73
2019-05-13T05:38:26.135Z,2.90
2019-05-13T05:40:56.948Z,3.27
2019-05-13T05:43:26.866Z,3.07
2019-05-13T05:45:55.993Z,3.30
2019-05-13T05:48:25.198Z,3.03
2019-05-13T05:50:54.512Z,3.20
2019-05-13T05:53:24.192Z,3.33
2019-05-13T05:55:54.876Z,3.40
2019-05-13T05:58:24.204Z,3.20
2019-05-13T06:00:55.024Z,3.50
2019-05-13T06:03:24.649Z,3.47
2019-05-13T06:05:54.244Z,3.43
2019-05-13T06:08:23.381Z,3.47
2019-05-13T06:10:53.853Z,3.87
2019-05-13T06:13:23.244Z,3.50
2019-05-13T06:15:52.369Z,3.60
2019-05-13T06:18:22.248Z,3.47
2019-05-13T06:20:52.756Z,3.60
2019-05-13T06:23:22.289Z,3.40
2019-05-13T06:25:52.612Z,3.70
2019-05-13T06:28:23.113Z,3.80
2019-05-13T06:30:52.608Z,3.90
2019-05-13T06:33:21.808Z,3.73
2019-05-13T06:35:52.125Z,3.77
2019-05-13T06:38:22.494Z,3.60
2019-05-13T06:41:00.395Z,3.50
2019-05-13T06:43:22.932Z,3.23
2019-05-13T06:45:52.068Z,3.80
2019-05-13T06:48:23.103Z,3.30
2019-05-13T06:50:52.238Z,3.30
2019-05-13T06:53:21.878Z,3.13
2019-05-13T06:55:52.322Z,2.90
2019-05-13T06:58:22.362Z,3.30
2019-05-13T07:00:51.794Z,3.20
2019-05-13T07:03:21.949Z,2.87
2019-05-13T07:05:52.633Z,3.03
2019-05-13T07:08:22.251Z,3.07
2019-05-13T07:10:51.871Z,2.97
2019-05-13T07:13:21.805Z,2.83
2019-05-13T07:15:52.278Z,3.23
2019-05-13T07:18:21.984Z,2.73
2019-05-13T07:20:53.013Z,2.87
2019-05-13T07:23:22.499Z,2.83
2019-05-13T07:25:52.441Z,2.80
2019-05-13T07:28:23.480Z,2.80
2019-05-13T07:30:52.621Z,2.67
2019-05-13T07:33:21.819Z,2.80
2019-05-13T07:35:56.818Z,2.40
2019-05-13T07:38:22.475Z,2.57
2019-05-13T07:40:54.882Z,2.20
2019-05-13T07:43:24.972Z,2.70
2019-05-13T07:45:54.110Z,2.90
2019-05-13T07:48:27.528Z,2.70
2019-05-13T07:51:00.239Z,2.30
2019-05-13T07:53:25.492Z,2.77
2019-05-13T07:55:54.635Z,2.30
2019-05-13T07:58:23.829Z,2.17
2019-05-13T08:00:53.089Z,2.27
2019-05-13T08:03:22.229Z,2.00
2019-05-13T08:05:51.434Z,2.00
2019-05-13T08:08:22.139Z,2.40
2019-05-13T08:10:51.979Z,2.40
2019-05-13T08:13:22.485Z,2.03
2019-05-13T08:15:54.686Z,3.33
2019-05-13T08:18:23.725Z,2.17
2019-05-13T08:20:52.871Z,2.53
2019-05-13T08:23:22.002Z,2.80
2019-05-13T08:25:51.504Z,2.47
2019-05-13T08:28:22.596Z,2.70
2019-05-13T08:30:52.105Z,1.80
2019-05-13T08:33:22.673Z,2.27
2019-05-13T08:35:54.125Z,2.20
2019-05-13T08:38:23.131Z,1.97
2019-05-13T08:40:52.400Z,2.20
2019-05-13T08:43:22.597Z,1.80
2019-05-13T08:45:55.488Z,2.13
2019-05-13T08:48:23.305Z,2.10
2019-05-13T08:50:52.426Z,2.50
2019-05-13T08:53:21.553Z,1.80
2019-05-13T08:55:51.718Z,2.17
2019-05-13T08:58:21.727Z,2.00
2019-05-13T09:00:53.728Z,1.90
2019-05-13T09:03:22.937Z,2.60
2019-05-13T09:05:52.457Z,1.87
2019-05-13T09:08:22.479Z,2.40
2019-05-13T09:10:52.468Z,1.70
2019-05-13T09:13:22.804Z,2.00
2019-05-13T09:15:51.945Z,1.90
2019-05-13T09:18:22.770Z,2.10
2019-05-13T09:20:52.200Z,1.93
2019-05-13T09:23:22.318Z,1.97
2019-05-13T09:25:52.344Z,1.87
2019-05-13T09:28:22.082Z,2.00
2019-05-13T09:30:53.168Z,1.80
2019-05-13T09:33:22.183Z,1.70
2019-05-13T09:35:53.623Z,2.10
2019-05-13T09:38:22.419Z,1.60
2019-05-13T09:40:53.038Z,2.13
2019-05-13T09:43:22.633Z,1.83
2019-05-13T09:45:52.469Z,1.87
2019-05-13T09:48:22.629Z,1.87
2019-05-13T09:50:53.145Z,1.80
2019-05-13T09:53:22.691Z,1.90
2019-05-13T09:55:52.931Z,1.37
2019-05-13T09:58:22.621Z,1.70
2019-05-13T10:00:53.344Z,1.83
2019-05-13T10:03:28.759Z,3.90
2019-05-13T10:05:53.506Z,1.90
2019-05-13T10:08:22.670Z,1.70
2019-05-13T10:10:52.747Z,1.90
2019-05-13T10:13:23.086Z,1.60
2019-05-13T10:15:53.174Z,1.57
2019-05-13T10:18:22.440Z,1.57
2019-05-13T10:20:58.957Z,1.80
2019-05-13T10:23:28.699Z,1.40
2019-05-13T10:26:03.260Z,1.67
2019-05-13T10:28:33.161Z,1.50
2019-05-13T10:31:02.727Z,1.50
2019-05-13T10:33:32.364Z,1.70
2019-05-13T10:36:03.516Z,1.40
2019-05-13T10:38:32.954Z,1.37
2019-05-13T10:41:03.405Z,1.30
2019-05-13T10:43:33.062Z,1.47
2019-05-13T10:46:03.432Z,1.57
2019-05-13T10:48:32.632Z,1.30
2019-05-13T10:51:02.718Z,1.60
2019-05-13T10:53:32.292Z,1.50
2019-05-13T10:56:03.503Z,1.50
2019-05-13T10:58:32.857Z,1.45
2019-05-13T11:01:03.788Z,1.80
2019-05-13T11:03:33.288Z,1.27
2019-05-13T11:06:03.176Z,1.30
2019-05-13T11:08:33.354Z,1.23
2019-05-13T11:11:03.880Z,1.13
2019-05-13T11:13:50.812Z,1.03
2019-05-13T11:16:03.944Z,1.27
2019-05-13T11:18:33.158Z,1.07
2019-05-13T11:21:02.474Z,1.10
2019-05-13T11:23:32.414Z,1.53
2019-05-13T11:26:03.395Z,1.47
2019-05-13T11:28:33.088Z,1.17
2019-05-13T11:31:03.518Z,1.30
2019-05-13T11:33:32.941Z,1.53
2019-05-13T11:36:03.238Z,1.17
2019-05-13T11:38:33.022Z,1.00
2019-05-13T11:41:02.860Z,1.00
2019-05-13T11:43:33.127Z,1.37
2019-05-13T11:46:02.948Z,1.20
2019-05-13T11:48:32.662Z,1.30
2019-05-13T11:51:03.832Z,1.10
2019-05-13T11:53:36.541Z,1.33
2019-05-13T11:56:04.321Z,1.20
2019-05-13T11:58:33.490Z,1.27
2019-05-13T12:01:04.254Z,1.17
2019-05-13T12:03:33.385Z,1.20
2019-05-13T12:06:02.821Z,1.30
2019-05-13T12:08:33.775Z,1.13
2019-05-13T12:11:05.098Z,1.20
2019-05-13T12:13:36.009Z,1.30
2019-05-13T12:16:05.201Z,1.10
2019-05-13T12:18:34.339Z,1.20
2019-05-13T12:21:04.310Z,1.57
2019-05-13T12:23:33.687Z,1.43
2019-05-13T12:26:04.937Z,1.40
2019-05-13T12:28:34.376Z,1.10
2019-05-13T12:31:03.631Z,1.23
2019-05-13T12:33:33.009Z,1.20
2019-05-13T12:36:02.379Z,1.20
2019-05-13T12:38:33.066Z,1.30
2019-05-13T12:41:04.995Z,1.37
2019-05-13T12:43:33.306Z,1.30
2019-05-13T12:46:02.666Z,1.20
2019-05-13T12:48:31.999Z,1.10
2019-05-13T12:51:03.066Z,1.47
2019-05-13T12:53:32.347Z,1.20
2019-05-13T12:56:03.730Z,1.40
2019-05-13T12:58:34.263Z,1.13
2019-05-13T13:01:03.670Z,1.30
2019-05-13T13:03:32.805Z,1.23
2019-05-13T13:06:25.124Z,1.40
2019-05-13T13:08:43.516Z,1.30
2019-05-13T13:11:04.700Z,1.10
2019-05-13T13:13:56.926Z,1.23
2019-05-13T13:16:04.797Z,1.27
2019-05-13T13:18:34.017Z,1.50
2019-05-13T13:21:07.411Z,1.10
2019-05-13T13:23:34.348Z,1.10
2019-05-13T13:26:03.834Z,1.10
2019-05-13T13:31:04.545Z,1.40
2019-05-13T13:33:34.481Z,1.10
2019-05-13T13:36:05.893Z,1.20
2019-05-13T13:38:35.331Z,1.40
2019-05-13T13:41:04.546Z,0.97
2019-05-13T13:43:36.997Z,1.33
2019-05-13T13:46:17.148Z,1.50
2019-05-13T13:48:36.727Z,1.63
2019-05-13T13:51:05.963Z,1.40
2019-05-13T13:53:35.362Z,1.40
2019-05-13T13:56:04.489Z,1.40
2019-05-13T13:58:33.965Z,1.70
2019-05-13T14:01:11.893Z,1.20
2019-05-13T14:03:34.800Z,1.60
2019-05-13T14:06:06.064Z,1.30
2019-05-13T14:07:08.797Z,1.00
2019-05-13T14:08:35.099Z,1.30
2019-05-13T14:11:04.242Z,1.67
2019-05-13T14:13:33.430Z,1.20
2019-05-13T14:16:03.426Z,1.50
2019-05-13T14:18:32.886Z,1.23
2019-05-13T14:21:03.594Z,1.27
2019-05-13T14:23:32.777Z,1.40
2019-05-13T14:26:02.985Z,1.40
2019-05-13T14:28:32.726Z,1.57
2019-05-13T14:31:03.360Z,1.30
2019-05-13T14:33:35.206Z,1.20
2019-05-13T14:36:03.701Z,1.03
2019-05-13T14:38:33.140Z,1.40
2019-05-13T14:41:03.496Z,1.40
2019-05-13T14:43:33.964Z,1.37
2019-05-13T14:46:03.276Z,1.20
2019-05-13T14:48:33.134Z,1.20
2019-05-13T14:51:02.520Z,1.47
2019-05-13T14:53:32.521Z,1.50
2019-05-13T14:56:03.237Z,1.20
2019-05-13T14:58:32.969Z,1.20
2019-05-13T15:01:15.757Z,1.30
2019-05-13T15:03:33.560Z,1.20
2019-05-13T15:06:04.546Z,1.30
2019-05-13T15:08:33.688Z,1.30
2019-05-13T15:11:04.474Z,1.40
2019-05-13T15:13:33.615Z,1.43
2019-05-13T15:16:02.742Z,2.23
2019-05-13T15:18:33.058Z,1.50
2019-05-13T15:21:03.399Z,1.32
2019-05-13T15:23:32.588Z,1.27
2019-05-13T15:26:03.178Z,1.20
2019-05-13T15:28:32.308Z,1.20
2019-05-13T15:31:01.786Z,1.27
2019-05-13T15:33:32.680Z,1.10
2019-05-13T15:36:02.402Z,1.30
2019-05-13T15:38:32.187Z,1.20
2019-05-13T15:41:02.025Z,1.43
2019-05-13T15:43:32.105Z,1.33
2019-05-13T15:46:03.778Z,1.10
2019-05-13T15:48:33.644Z,1.10
2019-05-13T15:51:04.176Z,1.10
2019-05-13T15:53:33.317Z,1.20
2019-05-13T15:56:03.440Z,1.17
2019-05-13T15:58:39.134Z,1.20
2019-05-13T16:01:03.749Z,1.30
2019-05-13T16:03:32.951Z,1.20
2019-05-13T16:06:03.257Z,1.10
2019-05-13T16:08:32.768Z,1.23
2019-05-13T16:11:03.432Z,1.20
2019-05-13T16:13:32.558Z,1.30
2019-05-13T16:16:01.982Z,1.20
2019-05-13T16:18:31.840Z,1.30
2019-05-13T16:21:01.877Z,1.20
2019-05-13T16:23:32.326Z,1.03
2019-05-13T16:26:02.744Z,2.27
2019-05-13T16:28:33.010Z,1.20
2019-05-13T16:31:02.933Z,1.17
2019-05-13T16:33:33.042Z,1.20
2019-05-13T16:36:03.222Z,1.63
2019-05-13T16:38:33.333Z,1.70
2019-05-13T16:41:02.532Z,1.20
2019-05-13T16:43:32.181Z,1.20
2019-05-13T16:46:01.448Z,1.30
2019-05-13T16:48:32.377Z,1.37
2019-05-13T16:51:02.660Z,1.40
2019-05-13T16:53:31.891Z,1.20
2019-05-13T16:56:01.800Z,1.60
2019-05-13T16:58:32.494Z,1.30
2019-05-13T17:01:02.966Z,1.40
2019-05-13T17:03:33.116Z,1.30
2019-05-13T17:06:02.422Z,1.37
2019-05-13T17:08:32.900Z,1.90
2019-05-13T17:11:02.944Z,1.30
2019-05-13T17:13:32.095Z,1.27
2019-05-13T17:16:03.081Z,1.40
2019-05-13T17:18:32.690Z,1.37
2019-05-13T17:21:03.744Z,1.37
2019-05-13T17:23:32.889Z,1.50
2019-05-13T17:26:04.330Z,1.40
2019-05-13T17:28:34.485Z,1.40
2019-05-13T17:31:05.011Z,1.37
2019-05-13T17:33:34.128Z,1.20
2019-05-13T17:36:03.257Z,1.53
2019-05-13T17:38:32.637Z,1.30
2019-05-13T17:41:02.695Z,1.23
2019-05-13T17:43:32.272Z,1.37
2019-05-13T17:46:02.386Z,1.20
2019-05-13T17:48:33.071Z,1.27
2019-05-13T17:51:03.772Z,1.40
2019-05-13T17:53:33.880Z,1.40
2019-05-13T17:56:05.388Z,1.57
2019-05-13T17:58:34.516Z,1.60
2019-05-13T18:01:04.594Z,1.30
2019-05-13T18:03:34.021Z,1.40
2019-05-13T18:06:05.038Z,1.30
2019-05-13T18:08:34.176Z,2.43
2019-05-13T18:11:04.878Z,1.30
2019-05-13T18:13:34.005Z,1.80
2019-05-13T18:16:05.016Z,1.43
2019-05-13T18:18:42.983Z,1.60
2019-05-13T18:21:05.277Z,1.70
2019-05-13T18:23:34.416Z,2.00
2019-05-13T18:26:03.877Z,1.47
2019-05-13T18:28:33.008Z,1.70
2019-05-13T18:31:02.485Z,1.50
2019-05-13T18:33:32.099Z,1.50
2019-05-13T18:36:02.546Z,1.57
2019-05-13T18:38:31.693Z,1.40
2019-05-13T18:41:02.044Z,1.40
2019-05-13T18:43:32.317Z,1.50
2019-05-13T18:46:03.844Z,1.67
2019-05-13T18:48:32.988Z,1.90
2019-05-13T18:51:03.900Z,1.80
2019-05-13T18:53:33.029Z,1.80
2019-05-13T18:56:03.784Z,1.70
2019-05-13T18:58:32.908Z,1.63
2019-05-13T19:01:03.776Z,1.90
2019-05-13T19:03:32.905Z,1.50
2019-05-13T19:06:02.561Z,2.27
2019-05-13T19:08:32.241Z,2.90
2019-05-13T19:11:01.751Z,2.13
2019-05-13T19:13:32.480Z,1.70
2019-05-13T19:16:02.656Z,1.80
2019-05-13T19:18:32.198Z,1.80
2019-05-13T19:21:02.278Z,1.80
2019-05-13T19:23:31.624Z,1.80
2019-05-13T19:26:02.724Z,2.00
2019-05-13T19:28:32.019Z,1.80
2019-05-13T19:31:02.710Z,2.40
2019-05-13T19:33:31.852Z,2.13
2019-05-13T19:36:02.689Z,1.97
2019-05-13T19:38:32.105Z,2.00
2019-05-13T19:41:01.978Z,1.80
2019-05-13T19:43:31.640Z,2.10
2019-05-13T19:46:02.564Z,1.80
2019-05-13T19:48:32.759Z,1.57
2019-05-13T19:51:02.708Z,1.80
2019-05-13T19:53:32.132Z,2.10
2019-05-13T19:56:03.661Z,1.80
2019-05-13T19:58:32.796Z,1.83
2019-05-13T20:01:03.381Z,1.87
2019-05-13T20:03:32.521Z,1.83
2019-05-13T20:06:02.600Z,2.10
2019-05-13T20:08:32.793Z,2.20
2019-05-13T20:11:02.289Z,2.20
2019-05-13T20:13:31.445Z,2.20
2019-05-13T20:16:01.464Z,1.93
2019-05-13T20:18:32.062Z,2.30
2019-05-13T20:21:03.085Z,2.20
2019-05-13T20:23:32.280Z,2.40
2019-05-13T20:26:01.833Z,2.27
2019-05-13T20:28:31.789Z,2.10
2019-05-13T20:31:03.094Z,2.40
2019-05-13T20:33:34.297Z,2.40
2019-05-13T20:36:03.841Z,2.17
2019-05-13T20:38:32.977Z,2.10
2019-05-13T20:41:03.357Z,2.30
2019-05-13T20:43:32.947Z,2.20
2019-05-13T20:46:02.359Z,2.10
2019-05-13T20:48:32.157Z,2.00
2019-05-13T20:51:02.544Z,2.00
2019-05-13T20:53:31.944Z,1.80
2019-05-13T20:56:02.023Z,2.00
2019-05-13T20:58:31.830Z,2.20
2019-05-13T21:01:02.573Z,2.10
2019-05-13T21:03:31.877Z,2.40
2019-05-13T21:06:01.981Z,2.20
2019-05-13T21:08:32.113Z,2.17
2019-05-13T21:11:02.493Z,2.30
2019-05-13T21:13:32.052Z,2.20
2019-05-13T21:16:03.127Z,2.20
2019-05-13T21:18:32.504Z,2.20
2019-05-13T21:21:02.234Z,2.20
2019-05-13T21:23:31.482Z,2.10
2019-05-13T21:26:03.297Z,2.00
2019-05-13T21:28:32.423Z,2.00
2019-05-13T21:31:02.309Z,2.00
2019-05-13T21:33:31.633Z,1.80
2019-05-13T21:36:01.948Z,1.90
2019-05-13T21:38:32.406Z,2.10
2019-05-13T21:41:01.848Z,1.87
2019-05-13T21:43:32.351Z,1.90
2019-05-13T21:46:03.958Z,1.80
2019-05-13T21:48:33.158Z,1.70
2019-05-13T21:51:02.288Z,1.67
2019-05-13T21:53:32.579Z,1.80
2019-05-13T21:56:02.516Z,1.90
2019-05-13T21:58:31.826Z,2.00
2019-05-13T22:01:01.913Z,2.17
2019-05-13T22:03:33.293Z,1.90
2019-05-13T22:06:02.770Z,1.73
2019-05-13T22:08:32.292Z,1.80
2019-05-13T22:11:02.706Z,2.00
2019-05-13T22:13:31.848Z,2.00
